PWSweather.com
Personal Weather Stations
Station Observations
KCANORTH19
Rocking L Ranch, North Fork, CA

Rocking L RanchNorth Fork, CA

Lat: 37.248, Lon: -119.56

Elevation: 3093

Station Type: Davis Vantage Pro 2

Latest ConditionsUpdated 3:15:04 AM PDT Tuesday, Oct 21, 2014
Currently Today's Max Today's Min Today's Average
Temperature 47.3°F8.5°C 54.6°F12.6°C 47.3°F8.5°C 49.8°F9.9°C
Dew Point 43.0°F6.1°C 48.7°F9.3°C 42.9°F6.1°C 44.7°F7.1°C
Winds Calm Calm 2.0 mph WNW3.2 kmh WNW - 0.2 mph 0.3 kmh
Wind Gusts -- 4.0 mph6.4 kmh - -
Humidity 85% 87% 75% 83%
Pressure 29.96 in1014.6 mb 29.98 in1015.2 mb 29.96 in1014.6 mb -
Hour Temp Dew Point Humidity Winds Wind Gusts Pressure Precip Precip Rate Daily Precip Total
03:15 AM 47.3°F8.5°C 43.0°F6.1°C 85% Calm Calm -- 29.96 in1014.6 mb 0.00 in0.0 mm 0.00 in/hr0.0 mm/hr 0.00 in0.0 mm
03:10 AM 47.4°F8.6°C 43.1°F6.2°C 85% Calm Calm -- 29.96 in1014.6 mb 0.00 in0.0 mm 0.00 in/hr0.0 mm/hr 0.00 in0.0 mm
03:05 AM 47.5°F8.6°C 43.2°F6.2°C 85% Calm Calm -- 29.96 in1014.6 mb 0.00 in0.0 mm 0.00 in/hr0.0 mm/hr 0.00 in0.0 mm
03:00 AM 47.7°F8.7°C 43.4°F6.3°C 85% Calm Calm -- 29.96 in1014.6 mb 0.00 in0.0 mm 0.00 in/hr0.0 mm/hr 0.00 in0.0 mm
02:55 AM 47.9°F8.8°C 43.3°F6.3°C 84% Calm Calm -- 29.97 in1014.9 mb 0.00 in0.0 mm 0.00 in/hr0.0 mm/hr 0.00 in0.0 mm
02:50 AM 48.2°F9.0°C 43.9°F6.6°C 85% Calm Calm -- 29.97 in1014.9 mb 0.00 in0.0 mm 0.00 in/hr0.0 mm/hr 0.00 in0.0 mm
02:45 AM 48.2°F9.0°C 43.6°F6.4°C 84% Calm Calm -- 29.97 in1014.9 mb 0.00 in0.0 mm 0.00 in/hr0.0 mm/hr 0.00 in0.0 mm
02:40 AM 48.4°F9.1°C 43.8°F6.6°C 84% Calm Calm -- 29.97 in1014.9 mb 0.00 in0.0 mm 0.00 in/hr0.0 mm/hr 0.00 in0.0 mm
02:35 AM 48.7°F9.3°C 44.1°F6.7°C 84% Calm Calm -- 29.97 in1014.9 mb 0.00 in0.0 mm 0.00 in/hr0.0 mm/hr 0.00 in0.0 mm
02:30 AM 48.9°F9.4°C 44.3°F6.8°C 84% Calm Calm -- 29.97 in1014.9 mb 0.00 in0.0 mm 0.00 in/hr0.0 mm/hr 0.00 in0.0 mm
02:25 AM 49.2°F9.6°C 44.6°F7.0°C 84% Calm Calm -- 29.97 in1014.9 mb 0.00 in0.0 mm 0.00 in/hr0.0 mm/hr 0.00 in0.0 mm
02:20 AM 49.3°F9.6°C 44.4°F6.9°C 83% Calm Calm -- 29.98 in1015.2 mb 0.00 in0.0 mm 0.00 in/hr0.0 mm/hr 0.00 in0.0 mm
02:15 AM 49.6°F9.8°C 44.7°F7.1°C 83% Calm Calm -- 29.97 in1014.9 mb 0.00 in0.0 mm 0.00 in/hr0.0 mm/hr 0.00 in0.0 mm
02:10 AM 49.8°F9.9°C 44.9°F7.2°C 83% Calm Calm -- 29.98 in1015.2 mb 0.00 in0.0 mm 0.00 in/hr0.0 mm/hr 0.00 in0.0 mm
02:05 AM 49.9°F9.9°C 44.6°F7.0°C 82% Calm Calm -- 29.98 in1015.2 mb 0.00 in0.0 mm 0.00 in/hr0.0 mm/hr 0.00 in0.0 mm
02:00 AM 50.2°F10.1°C 44.9°F7.2°C 82% Calm Calm 3.0 mph4.8 kmh 29.98 in1015.2 mb 0.00 in0.0 mm 0.00 in/hr0.0 mm/hr 0.00 in0.0 mm
01:55 AM 50.5°F10.3°C 44.9°F7.2°C 81% Calm Calm 3.0 mph4.8 kmh 29.98 in1015.2 mb 0.00 in0.0 mm 0.00 in/hr0.0 mm/hr 0.00 in0.0 mm
01:50 AM 50.8°F10.4°C 45.2°F7.3°C 81% Calm Calm 3.0 mph4.8 kmh 29.98 in1015.2 mb 0.00 in0.0 mm 0.00 in/hr0.0 mm/hr 0.00 in0.0 mm
01:45 AM 51.0°F10.6°C 45.1°F7.3°C 80% Calm Calm 1.0 mph1.6 kmh 29.98 in1015.2 mb 0.00 in0.0 mm 0.00 in/hr0.0 mm/hr 0.00 in0.0 mm
01:40 AM 51.5°F10.8°C 45.5°F7.5°C 80% Calm Calm -- 29.98 in1015.2 mb 0.00 in0.0 mm 0.00 in/hr0.0 mm/hr 0.00 in0.0 mm
01:35 AM 51.9°F11.1°C 45.3°F7.4°C 78% Calm Calm -- 29.98 in1015.2 mb 0.00 in0.0 mm 0.00 in/hr0.0 mm/hr 0.00 in0.0 mm
01:30 AM 52.7°F11.5°C 45.0°F7.2°C 75% Calm Calm 4.0 mph6.4 kmh 29.98 in1015.2 mb 0.00 in0.0 mm 0.00 in/hr0.0 mm/hr 0.00 in0.0 mm
01:25 AM 54.1°F12.3°C 46.4°F8.0°C 75% Calm Calm 4.0 mph6.4 kmh 29.98 in1015.2 mb 0.00 in0.0 mm 0.00 in/hr0.0 mm/hr 0.00 in0.0 mm
01:20 AM 54.6°F12.6°C 48.6°F9.2°C 80% Calm Calm 4.0 mph6.4 kmh 29.98 in1015.2 mb 0.00 in0.0 mm 0.00 in/hr0.0 mm/hr 0.00 in0.0 mm
01:15 AM 54.4°F12.4°C 48.7°F9.3°C 81% Calm Calm 4.0 mph6.4 kmh 29.98 in1015.2 mb 0.00 in0.0 mm 0.00 in/hr0.0 mm/hr 0.00 in0.0 mm
01:10 AM 53.7°F12.1°C 48.3°F9.1°C 82% 1.0 mph W1.6 kmh W 4.0 mph6.4 kmh 29.98 in1015.2 mb 0.00 in0.0 mm 0.00 in/hr0.0 mm/hr 0.00 in0.0 mm
01:05 AM 52.9°F11.6°C 47.9°F8.8°C 83% Calm Calm 2.0 mph3.2 kmh 29.98 in1015.2 mb 0.00 in0.0 mm 0.00 in/hr0.0 mm/hr 0.00 in0.0 mm
01:00 AM 52.2°F11.2°C 47.8°F8.8°C 85% 1.0 mph WNW1.6 kmh WNW 3.0 mph4.8 kmh 29.98 in1015.2 mb 0.00 in0.0 mm 0.00 in/hr0.0 mm/hr 0.00 in0.0 mm
12:55 AM 50.4°F10.2°C 46.7°F8.2°C 87% 2.0 mph WNW3.2 kmh WNW 3.0 mph4.8 kmh 29.98 in1015.2 mb 0.00 in0.0 mm 0.00 in/hr0.0 mm/hr 0.00 in0.0 mm
12:50 AM 47.9°F8.8°C 43.3°F6.3°C 84% 2.0 mph W3.2 kmh W 3.0 mph4.8 kmh 29.98 in1015.2 mb 0.00 in0.0 mm 0.00 in/hr0.0 mm/hr 0.00 in0.0 mm
12:45 AM 47.7°F8.7°C 43.1°F6.2°C 84% Calm Calm -- 29.97 in1014.9 mb 0.00 in0.0 mm 0.00 in/hr0.0 mm/hr 0.00 in0.0 mm
12:40 AM 47.8°F8.8°C 42.9°F6.1°C 83% Calm Calm -- 29.97 in1014.9 mb 0.00 in0.0 mm 0.00 in/hr0.0 mm/hr 0.00 in0.0 mm
12:35 AM 47.9°F8.8°C 43.0°F6.1°C 83% Calm Calm -- 29.96 in1014.6 mb 0.00 in0.0 mm 0.00 in/hr0.0 mm/hr 0.00 in0.0 mm
12:30 AM 48.1°F8.9°C 43.2°F6.2°C 83% Calm Calm -- 29.96 in1014.6 mb 0.00 in0.0 mm 0.00 in/hr0.0 mm/hr 0.00 in0.0 mm
12:25 AM 48.5°F9.2°C 43.6°F6.4°C 83% Calm Calm -- 29.96 in1014.6 mb 0.00 in0.0 mm 0.00 in/hr0.0 mm/hr 0.00 in0.0 mm
12:20 AM 48.5°F9.2°C 43.6°F6.4°C 83% Calm Calm -- 29.96 in1014.6 mb 0.00 in0.0 mm 0.00 in/hr0.0 mm/hr 0.00 in0.0 mm
12:15 AM 48.7°F9.3°C 43.8°F6.6°C 83% Calm Calm -- 29.96 in1014.6 mb 0.00 in0.0 mm 0.00 in/hr0.0 mm/hr 0.00 in0.0 mm
12:10 AM 48.8°F9.3°C 43.9°F6.6°C 83% Calm Calm -- 29.96 in1014.6 mb 0.00 in0.0 mm 0.00 in/hr0.0 mm/hr 0.00 in0.0 mm
12:05 AM 49.2°F9.6°C 44.0°F6.7°C 82% Calm Calm -- 29.96 in1014.6 mb 0.00 in0.0 mm 0.00 in/hr0.0 mm/hr 0.00 in0.0 mm
12:00 AM 49.5°F9.7°C 44.2°F6.8°C 82% Calm Calm -- 29.96 in1014.6 mb 0.00 in0.0 mm 0.00 in/hr0.0 mm/hr 0.00 in0.0 mm